Time,TemperatureF,DewpointF,PressureIn,WindDirection,WindDirectionDegrees,WindSpeedMPH,WindSpeedGustMPH,Humidity,HourlyPrecipIn,Conditions,Clouds,dailyrainin,SoftwareType,DateUTC
2013-06-29 00:00:00,64.0,62.8,29.62,East,82,0.0,0.0,96,0.00,,,0.00,Wunderground v.1.15,2013-06-29 05:00:00,
2013-06-29 00:06:00,64.1,62.9,29.62,East,82,0.0,0.0,96,0.00,,,0.00,Wunderground v.1.15,2013-06-29 05:06:00,
2013-06-29 00:11:00,64.0,62.8,29.62,East,82,0.0,0.0,96,0.00,,,0.00,Wunderground v.1.15,2013-06-29 05:11:00,
2013-06-29 00:16:00,64.0,62.8,29.62,East,82,0.0,0.0,96,0.00,,,0.00,Wunderground v.1.15,2013-06-29 05:16:00,
2013-06-29 00:21:00,63.9,62.7,29.62,East,82,0.0,0.0,96,0.00,,,0.00,Wunderground v.1.15,2013-06-29 05:21:00,
2013-06-29 00:27:00,63.9,62.7,29.62,East,81,0.0,0.0,96,0.00,,,0.00,Wunderground v.1.15,2013-06-29 05:27:00,
2013-06-29 00:33:00,63.9,62.7,29.62,East,82,0.0,0.0,96,0.00,,,0.00,Wunderground v.1.15,2013-06-29 05:33:00,
2013-06-29 00:38:00,63.9,62.7,29.62,East,81,0.0,0.0,96,0.00,,,0.00,Wunderground v.1.15,2013-06-29 05:38:00,
2013-06-29 00:43:00,63.8,62.6,29.62,East,82,0.0,0.0,96,0.00,,,0.00,Wunderground v.1.15,2013-06-29 05:43:00,
2013-06-29 00:49:00,63.8,62.6,29.62,East,82,0.0,0.0,96,0.00,,,0.00,Wunderground v.1.15,2013-06-29 05:49:00,
2013-06-29 00:54:00,63.6,62.4,29.62,East,82,0.0,0.0,96,0.00,,,0.00,Wunderground v.1.15,2013-06-29 05:54:00,
2013-06-29 00:59:00,63.6,62.4,29.62,East,81,0.0,0.0,96,0.00,,,0.00,Wunderground v.1.15,2013-06-29 05:59:00,
2013-06-29 01:05:00,63.6,62.4,29.62,East,81,0.0,0.0,96,0.00,,,0.00,Wunderground v.1.15,2013-06-29 06:05:00,
2013-06-29 01:10:00,63.6,62.4,29.62,East,82,2.0,2.0,96,0.00,,,0.00,Wunderground v.1.15,2013-06-29 06:10:00,
2013-06-29 01:16:00,63.6,62.4,29.62,East,81,0.0,2.0,96,0.00,,,0.00,Wunderground v.1.15,2013-06-29 06:16:00,
2013-06-29 01:21:00,63.7,62.5,29.61,East,81,0.0,0.0,96,0.00,,,0.00,Wunderground v.1.15,2013-06-29 06:21:00,
2013-06-29 01:27:00,63.7,62.5,29.62,East,81,0.0,1.0,96,0.00,,,0.00,Wunderground v.1.15,2013-06-29 06:27:00,
2013-06-29 01:33:00,63.6,62.4,29.62,East,81,0.0,0.0,96,0.00,,,0.00,Wunderground v.1.15,2013-06-29 06:33:00,
2013-06-29 01:39:00,63.6,62.4,29.62,East,81,0.0,0.0,96,0.00,,,0.00,Wunderground v.1.15,2013-06-29 06:39:00,
2013-06-29 01:44:00,63.6,62.4,29.62,East,81,0.0,0.0,96,0.00,,,0.00,Wunderground v.1.15,2013-06-29 06:44:00,
2013-06-29 01:49:00,63.6,62.4,29.62,East,79,1.0,1.0,96,0.00,,,0.00,Wunderground v.1.15,2013-06-29 06:49:00,
2013-06-29 01:55:00,63.6,62.4,29.62,East,79,0.0,0.0,96,0.00,,,0.00,Wunderground v.1.15,2013-06-29 06:55:00,
2013-06-29 02:00:00,63.6,62.4,29.62,East,79,0.0,0.0,96,0.00,,,0.00,Wunderground v.1.15,2013-06-29 07:00:00,
2013-06-29 02:05:00,63.6,62.4,29.61,East,79,0.0,1.0,96,0.00,,,0.00,Wunderground v.1.15,2013-06-29 07:05:00,
2013-06-29 02:10:00,63.5,62.3,29.61,East,79,0.0,2.0,96,0.00,,,0.00,Wunderground v.1.15,2013-06-29 07:10:00,
2013-06-29 02:16:00,63.4,62.2,29.61,East,79,0.0,2.0,96,0.00,,,0.00,Wunderground v.1.15,2013-06-29 07:16:00,
2013-06-29 02:21:00,63.3,62.1,29.61,East,79,0.0,0.0,96,0.00,,,0.00,Wunderground v.1.15,2013-06-29 07:21:00,
2013-06-29 02:26:00,63.2,62.0,29.61,East,79,0.0,1.0,96,0.00,,,0.00,Wunderground v.1.15,2013-06-29 07:26:00,
2013-06-29 02:31:00,63.1,61.9,29.61,East,79,0.0,1.0,96,0.00,,,0.00,Wunderground v.1.15,2013-06-29 07:31:00,
2013-06-29 02:36:00,63.1,61.9,29.61,East,79,0.0,1.0,96,0.00,,,0.00,Wunderground v.1.15,2013-06-29 07:36:00,
2013-06-29 02:41:00,63.1,61.9,29.61,East,79,0.0,1.0,96,0.00,,,0.00,Wunderground v.1.15,2013-06-29 07:41:00,
2013-06-29 02:47:00,63.1,62.2,29.61,East,80,0.0,1.0,97,0.00,,,0.00,Wunderground v.1.15,2013-06-29 07:47:00,
2013-06-29 02:52:00,63.3,62.4,29.61,East,79,0.0,3.0,97,0.00,,,0.00,Wunderground v.1.15,2013-06-29 07:52:00,
2013-06-29 02:58:00,63.4,62.5,29.61,ENE,76,0.0,3.0,97,0.00,,,0.00,Wunderground v.1.15,2013-06-29 07:58:00,
2013-06-29 03:03:00,63.5,62.6,29.61,ENE,76,0.0,1.0,97,0.00,,,0.00,Wunderground v.1.15,2013-06-29 08:03:00,
2013-06-29 03:08:00,63.5,62.6,29.61,ENE,76,0.0,2.0,97,0.00,,,0.00,Wunderground v.1.15,2013-06-29 08:08:00,
2013-06-29 03:13:00,63.5,62.6,29.61,ENE,76,0.0,0.0,97,0.00,,,0.00,Wunderground v.1.15,2013-06-29 08:13:00,
2013-06-29 03:19:00,63.5,62.6,29.61,ENE,76,0.0,1.0,97,0.00,,,0.01,Wunderground v.1.15,2013-06-29 08:19:00,
2013-06-29 03:24:00,63.6,62.7,29.61,ENE,76,0.0,1.0,97,0.00,,,0.01,Wunderground v.1.15,2013-06-29 08:24:00,
2013-06-29 03:30:00,63.7,62.8,29.61,ENE,76,0.0,0.0,97,0.00,,,0.01,Wunderground v.1.15,2013-06-29 08:30:00,
2013-06-29 03:36:00,63.8,62.9,29.61,North,5,0.0,2.0,97,0.05,,,0.02,Wunderground v.1.15,2013-06-29 08:36:00,
2013-06-29 03:41:00,63.8,62.9,29.61,NNW,348,0.0,2.0,97,0.05,,,0.02,Wunderground v.1.15,2013-06-29 08:41:00,
2013-06-29 03:46:00,63.8,62.9,29.61,NNW,348,0.0,2.0,97,0.04,,,0.02,Wunderground v.1.15,2013-06-29 08:46:00,
2013-06-29 03:51:00,63.7,62.8,29.61,NNW,348,0.0,1.0,97,0.00,,,0.02,Wunderground v.1.15,2013-06-29 08:51:00,
2013-06-29 03:56:00,63.8,62.9,29.61,NNW,348,0.0,2.0,97,0.00,,,0.02,Wunderground v.1.15,2013-06-29 08:56:00,
2013-06-29 04:01:00,63.8,62.9,29.61,NNW,348,0.0,0.0,97,0.00,,,0.02,Wunderground v.1.15,2013-06-29 09:01:00,
2013-06-29 04:06:00,63.8,62.9,29.61,NNE,19,0.0,1.0,97,0.00,,,0.02,Wunderground v.1.15,2013-06-29 09:06:00,
2013-06-29 04:11:00,63.8,62.9,29.61,NNE,19,1.0,2.0,97,0.00,,,0.02,Wunderground v.1.15,2013-06-29 09:11:00,
2013-06-29 04:16:00,63.7,62.8,29.61,North,355,0.0,4.0,97,0.00,,,0.02,Wunderground v.1.15,2013-06-29 09:16:00,
2013-06-29 04:21:00,63.7,62.8,29.61,North,355,0.0,1.0,97,0.00,,,0.02,Wunderground v.1.15,2013-06-29 09:21:00,
2013-06-29 04:26:00,63.7,62.8,29.61,North,355,0.0,2.0,97,0.00,,,0.02,Wunderground v.1.15,2013-06-29 09:26:00,
2013-06-29 04:32:00,63.6,62.7,29.61,North,5,0.0,0.0,97,0.00,,,0.02,Wunderground v.1.15,2013-06-29 09:32:00,
2013-06-29 04:37:00,63.7,62.8,29.61,North,5,1.0,1.0,97,0.00,,,0.02,Wunderground v.1.15,2013-06-29 09:37:00,
2013-06-29 04:43:00,63.6,62.7,29.61,North,5,0.0,1.0,97,0.00,,,0.02,Wunderground v.1.15,2013-06-29 09:43:00,
2013-06-29 04:48:00,63.7,62.8,29.61,North,11,1.0,2.0,97,0.00,,,0.02,Wunderground v.1.15,2013-06-29 09:48:00,
2013-06-29 04:53:00,63.8,62.9,29.61,NNW,340,0.0,4.0,97,0.00,,,0.02,Wunderground v.1.15,2013-06-29 09:53:00,
2013-06-29 04:58:00,63.8,62.9,29.61,North,5,0.0,4.0,97,0.00,,,0.02,Wunderground v.1.15,2013-06-29 09:58:00,
2013-06-29 05:03:00,63.8,62.9,29.61,NNE,29,0.0,2.0,97,0.00,,,0.02,Wunderground v.1.15,2013-06-29 10:03:00,
2013-06-29 05:09:00,63.8,62.9,29.62,NNE,32,0.0,4.0,97,0.00,,,0.02,Wunderground v.1.15,2013-06-29 10:09:00,
2013-06-29 05:15:00,63.7,62.8,29.62,NNE,22,2.0,3.0,97,0.00,,,0.02,Wunderground v.1.15,2013-06-29 10:15:00,
2013-06-29 05:20:00,63.7,62.8,29.62,NNE,20,0.0,3.0,97,0.00,,,0.02,Wunderground v.1.15,2013-06-29 10:20:00,
2013-06-29 05:25:00,63.7,62.8,29.62,NNE,20,0.0,1.0,97,0.00,,,0.02,Wunderground v.1.15,2013-06-29 10:25:00,
2013-06-29 05:30:00,63.7,62.8,29.62,NNE,20,2.0,2.0,97,0.00,,,0.02,Wunderground v.1.15,2013-06-29 10:30:00,
2013-06-29 05:35:00,63.6,62.7,29.63,NE,47,2.0,6.0,97,0.00,,,0.02,Wunderground v.1.15,2013-06-29 10:35:00,
2013-06-29 05:41:00,63.5,62.6,29.63,NE,48,1.0,1.0,97,0.00,,,0.02,Wunderground v.1.15,2013-06-29 10:41:00,
2013-06-29 05:46:00,63.5,62.6,29.63,NE,49,0.0,6.0,97,0.00,,,0.02,Wunderground v.1.15,2013-06-29 10:46:00,
2013-06-29 05:51:00,63.5,62.6,29.63,ENE,61,3.0,3.0,97,0.00,,,0.02,Wunderground v.1.15,2013-06-29 10:51:00,
2013-06-29 05:56:00,63.5,62.6,29.63,NE,40,0.0,6.0,97,0.00,,,0.02,Wunderground v.1.15,2013-06-29 10:56:00,
2013-06-29 06:01:00,63.6,62.4,29.63,NE,39,1.0,2.0,96,0.00,,,0.02,Wunderground v.1.15,2013-06-29 11:01:00,
2013-06-29 06:06:00,63.6,62.4,29.63,NE,43,0.0,2.0,96,0.00,,,0.02,Wunderground v.1.15,2013-06-29 11:06:00,
2013-06-29 06:11:00,63.5,62.3,29.63,NNE,25,0.0,1.0,96,0.00,,,0.02,Wunderground v.1.15,2013-06-29 11:11:00,
2013-06-29 06:16:00,63.5,62.3,29.63,NE,34,0.0,3.0,96,0.00,,,0.02,Wunderground v.1.15,2013-06-29 11:16:00,
2013-06-29 06:22:00,63.5,62.3,29.63,NE,34,0.0,2.0,96,0.00,,,0.02,Wunderground v.1.15,2013-06-29 11:22:00,
2013-06-29 06:27:00,63.5,62.3,29.63,NE,34,0.0,4.0,96,0.00,,,0.02,Wunderground v.1.15,2013-06-29 11:27:00,
2013-06-29 06:32:00,63.5,62.3,29.63,NNE,33,0.0,4.0,96,0.00,,,0.02,Wunderground v.1.15,2013-06-29 11:32:00,
2013-06-29 06:37:00,63.5,62.3,29.63,NNE,30,0.0,4.0,96,0.00,,,0.02,Wunderground v.1.15,2013-06-29 11:37:00,
2013-06-29 06:42:00,63.6,62.4,29.63,NNE,33,0.0,0.0,96,0.00,,,0.02,Wunderground v.1.15,2013-06-29 11:42:00,
2013-06-29 06:47:00,63.6,62.4,29.63,NNE,28,1.0,2.0,96,0.00,,,0.02,Wunderground v.1.15,2013-06-29 11:47:00,
2013-06-29 06:53:00,63.6,62.4,29.63,NNE,30,0.0,1.0,96,0.00,,,0.02,Wunderground v.1.15,2013-06-29 11:53:00,
2013-06-29 06:58:00,63.6,62.4,29.63,NE,34,1.0,3.0,96,0.00,,,0.02,Wunderground v.1.15,2013-06-29 11:58:00,
2013-06-29 07:03:00,63.6,62.4,29.63,NNE,16,0.0,5.0,96,0.00,,,0.02,Wunderground v.1.15,2013-06-29 12:03:00,
2013-06-29 07:08:00,63.6,62.4,29.64,NE,44,0.0,5.0,96,0.00,,,0.02,Wunderground v.1.15,2013-06-29 12:08:00,
2013-06-29 07:14:00,63.6,62.4,29.64,NE,36,0.0,5.0,96,0.00,,,0.02,Wunderground v.1.15,2013-06-29 12:14:00,
2013-06-29 07:19:00,63.6,62.4,29.63,NNE,19,1.0,5.0,96,0.00,,,0.02,Wunderground v.1.15,2013-06-29 12:19:00,
2013-06-29 07:25:00,63.7,62.5,29.64,NE,35,2.0,4.0,96,0.00,,,0.02,Wunderground v.1.15,2013-06-29 12:25:00,
2013-06-29 07:30:00,63.7,62.5,29.64,ENE,58,0.0,1.0,96,0.00,,,0.02,Wunderground v.1.15,2013-06-29 12:30:00,
2013-06-29 07:36:00,63.7,62.5,29.64,NE,51,3.0,6.0,96,0.00,,,0.02,Wunderground v.1.15,2013-06-29 12:36:00,
2013-06-29 07:41:00,63.7,62.5,29.64,NE,52,1.0,2.0,96,0.00,,,0.02,Wunderground v.1.15,2013-06-29 12:41:00,
2013-06-29 07:46:00,63.8,62.6,29.64,NE,34,1.0,4.0,96,0.00,,,0.02,Wunderground v.1.15,2013-06-29 12:46:00,
2013-06-29 07:52:00,63.8,62.6,29.64,NE,34,0.0,2.0,96,0.00,,,0.02,Wunderground v.1.15,2013-06-29 12:52:00,
2013-06-29 07:58:00,63.9,62.7,29.64,NNE,33,0.0,3.0,96,0.00,,,0.02,Wunderground v.1.15,2013-06-29 12:58:00,
2013-06-29 08:03:00,63.9,62.4,29.65,NE,52,2.0,2.0,95,0.00,,,0.02,Wunderground v.1.15,2013-06-29 13:03:00,
2013-06-29 08:08:00,63.9,62.4,29.65,NE,34,3.0,4.0,95,0.00,,,0.02,Wunderground v.1.15,2013-06-29 13:08:00,
2013-06-29 08:13:00,63.9,62.4,29.65,East,81,0.0,6.0,95,0.00,,,0.02,Wunderground v.1.15,2013-06-29 13:13:00,
2013-06-29 08:18:00,63.8,62.3,29.65,NE,37,0.0,6.0,95,0.00,,,0.02,Wunderground v.1.15,2013-06-29 13:18:00,
2013-06-29 08:24:00,63.8,62.3,29.65,NE,40,1.0,5.0,95,0.00,,,0.03,Wunderground v.1.15,2013-06-29 13:24:00,
2013-06-29 08:29:00,63.7,62.2,29.65,ENE,74,0.0,5.0,95,0.12,,,0.04,Wunderground v.1.15,2013-06-29 13:29:00,
2013-06-29 08:34:00,63.8,62.6,29.65,ENE,59,0.0,3.0,96,0.10,,,0.04,Wunderground v.1.15,2013-06-29 13:34:00,
2013-06-29 08:39:00,63.8,62.6,29.65,ENE,61,5.0,5.0,96,0.07,,,0.05,Wunderground v.1.15,2013-06-29 13:39:00,
2013-06-29 08:44:00,63.7,62.5,29.65,NE,34,1.0,6.0,96,0.14,,,0.06,Wunderground v.1.15,2013-06-29 13:44:00,
2013-06-29 08:49:00,63.7,62.5,29.65,ENE,74,6.0,7.0,96,0.07,,,0.06,Wunderground v.1.15,2013-06-29 13:49:00,
2013-06-29 08:55:00,63.7,62.5,29.65,ENE,71,2.0,3.0,96,0.04,,,0.06,Wunderground v.1.15,2013-06-29 13:55:00,
2013-06-29 09:00:00,63.7,62.5,29.65,NE,37,2.0,6.0,96,0.04,,,0.07,Wunderground v.1.15,2013-06-29 14:00:00,
2013-06-29 09:05:00,63.8,62.6,29.65,ENE,72,0.0,6.0,96,0.04,,,0.07,Wunderground v.1.15,2013-06-29 14:05:00,
2013-06-29 09:10:00,63.7,62.5,29.66,NNE,32,2.0,2.0,96,0.04,,,0.07,Wunderground v.1.15,2013-06-29 14:10:00,
2013-06-29 09:15:00,63.6,62.4,29.66,NNE,31,5.0,6.0,96,0.00,,,0.07,Wunderground v.1.15,2013-06-29 14:15:00,
2013-06-29 09:20:00,63.3,62.1,29.66,NE,51,2.0,7.0,96,0.00,,,0.07,Wunderground v.1.15,2013-06-29 14:20:00,
2013-06-29 09:25:00,63.1,61.9,29.66,NNE,31,3.0,10.0,96,0.00,,,0.08,Wunderground v.1.15,2013-06-29 14:25:00,
2013-06-29 09:31:00,63.1,61.9,29.66,NE,36,5.0,5.0,96,0.00,,,0.08,Wunderground v.1.15,2013-06-29 14:31:00,
2013-06-29 09:37:00,63.0,61.8,29.66,ENE,59,3.0,6.0,96,0.04,,,0.08,Wunderground v.1.15,2013-06-29 14:37:00,
2013-06-29 09:42:00,63.1,61.9,29.66,NNE,32,1.0,4.0,96,0.13,,,0.10,Wunderground v.1.15,2013-06-29 14:42:00,
2013-06-29 09:47:00,63.2,62.0,29.66,NNE,13,1.0,4.0,96,0.11,,,0.11,Wunderground v.1.15,2013-06-29 14:47:00,
2013-06-29 09:53:00,63.0,61.8,29.66,NE,52,5.0,9.0,96,0.17,,,0.12,Wunderground v.1.15,2013-06-29 14:53:00,
2013-06-29 09:58:00,62.8,61.3,29.66,East,84,1.0,9.0,95,0.08,,,0.12,Wunderground v.1.15,2013-06-29 14:58:00,
2013-06-29 10:03:00,62.8,61.6,29.66,NE,41,1.0,6.0,96,0.07,,,0.13,Wunderground v.1.15,2013-06-29 15:03:00,
2013-06-29 10:08:00,62.8,61.6,29.66,NE,55,3.0,9.0,96,0.13,,,0.14,Wunderground v.1.15,2013-06-29 15:08:00,
2013-06-29 10:13:00,62.8,61.6,29.66,NE,39,1.0,5.0,96,0.14,,,0.15,Wunderground v.1.15,2013-06-29 15:13:00,
2013-06-29 10:19:00,62.9,61.7,29.67,NE,49,3.0,10.0,96,0.10,,,0.16,Wunderground v.1.15,2013-06-29 15:19:00,
2013-06-29 10:24:00,62.9,61.7,29.67,NE,51,0.0,7.0,96,0.09,,,0.17,Wunderground v.1.15,2013-06-29 15:24:00,
2013-06-29 10:29:00,62.9,61.7,29.67,NE,49,3.0,10.0,96,0.06,,,0.17,Wunderground v.1.15,2013-06-29 15:29:00,
2013-06-29 10:34:00,62.9,61.7,29.67,ENE,64,5.0,6.0,96,0.05,,,0.18,Wunderground v.1.15,2013-06-29 15:34:00,
2013-06-29 10:40:00,62.9,61.7,29.67,NNE,20,2.0,2.0,96,0.05,,,0.18,Wunderground v.1.15,2013-06-29 15:40:00,
2013-06-29 10:45:00,63.0,61.8,29.67,NE,53,2.0,10.0,96,0.04,,,0.18,Wunderground v.1.15,2013-06-29 15:45:00,
2013-06-29 10:50:00,63.0,61.8,29.67,NE,48,5.0,5.0,96,0.04,,,0.19,Wunderground v.1.15,2013-06-29 15:50:00,
2013-06-29 10:55:00,63.1,61.9,29.67,NE,55,1.0,6.0,96,0.04,,,0.19,Wunderground v.1.15,2013-06-29 15:55:00,
2013-06-29 11:00:00,63.1,61.9,29.68,East,86,3.0,5.0,96,0.04,,,0.19,Wunderground v.1.15,2013-06-29 16:00:00,
2013-06-29 11:06:00,63.3,62.1,29.68,East,84,5.0,10.0,96,0.04,,,0.20,Wunderground v.1.15,2013-06-29 16:06:00,
2013-06-29 11:11:00,63.6,62.4,29.68,East,84,1.0,2.0,96,0.04,,,0.20,Wunderground v.1.15,2013-06-29 16:11:00,
2013-06-29 11:16:00,63.8,62.6,29.68,ENE,66,2.0,5.0,96,0.04,,,0.20,Wunderground v.1.15,2013-06-29 16:16:00,
2013-06-29 11:21:00,63.6,62.1,29.68,NE,48,3.0,3.0,95,0.00,,,0.20,Wunderground v.1.15,2013-06-29 16:21:00,
2013-06-29 11:26:00,63.5,62.0,29.68,NE,43,3.0,9.0,95,0.00,,,0.20,Wunderground v.1.15,2013-06-29 16:26:00,
2013-06-29 11:31:00,63.7,62.2,29.68,NNE,28,0.0,5.0,95,0.00,,,0.20,Wunderground v.1.15,2013-06-29 16:31:00,
2013-06-29 11:36:00,63.8,62.3,29.68,NNE,31,5.0,7.0,95,0.00,,,0.20,Wunderground v.1.15,2013-06-29 16:36:00,
2013-06-29 11:42:00,64.0,62.5,29.68,East,98,6.0,9.0,95,0.00,,,0.20,Wunderground v.1.15,2013-06-29 16:42:00,
2013-06-29 11:47:00,64.1,62.6,29.69,NNW,341,2.0,11.0,95,0.00,,,0.20,Wunderground v.1.15,2013-06-29 16:47:00,
2013-06-29 11:52:00,64.3,62.8,29.69,ENE,75,3.0,5.0,95,0.00,,,0.20,Wunderground v.1.15,2013-06-29 16:52:00,
2013-06-29 11:58:00,64.4,62.6,29.69,ENE,74,3.0,11.0,94,0.00,,,0.20,Wunderground v.1.15,2013-06-29 16:58:00,
2013-06-29 12:03:00,64.7,62.9,29.69,ESE,107,3.0,9.0,94,0.00,,,0.20,Wunderground v.1.15,2013-06-29 17:03:00,
2013-06-29 12:08:00,65.0,62.9,29.69,ENE,67,3.0,9.0,93,0.00,,,0.20,Wunderground v.1.15,2013-06-29 17:08:00,
2013-06-29 12:13:00,65.2,62.8,29.69,East,90,1.0,6.0,92,0.00,,,0.20,Wunderground v.1.15,2013-06-29 17:13:00,
2013-06-29 12:18:00,65.2,62.5,29.69,NE,44,2.0,7.0,91,0.00,,,0.20,Wunderground v.1.15,2013-06-29 17:18:00,
2013-06-29 12:23:00,65.5,62.8,29.69,NE,37,3.0,6.0,91,0.00,,,0.20,Wunderground v.1.15,2013-06-29 17:23:00,
2013-06-29 12:28:00,65.9,63.2,29.69,NE,45,1.0,6.0,91,0.00,,,0.20,Wunderground v.1.15,2013-06-29 17:28:00,
2013-06-29 12:34:00,66.0,63.0,29.69,ENE,60,1.0,6.0,90,0.00,,,0.20,Wunderground v.1.15,2013-06-29 17:34:00,
2013-06-29 12:39:00,65.9,62.6,29.69,ENE,63,0.0,6.0,89,0.00,,,0.20,Wunderground v.1.15,2013-06-29 17:39:00,
2013-06-29 12:45:00,66.0,62.7,29.68,NE,51,2.0,5.0,89,0.00,,,0.20,Wunderground v.1.15,2013-06-29 17:45:00,
2013-06-29 12:50:00,66.3,62.6,29.69,ENE,61,5.0,7.0,88,0.00,,,0.20,Wunderground v.1.15,2013-06-29 17:50:00,
2013-06-29 12:55:00,66.8,62.5,29.69,NE,38,5.0,10.0,86,0.00,,,0.20,Wunderground v.1.15,2013-06-29 17:55:00,
2013-06-29 13:00:00,67.0,61.7,29.69,NE,51,4.0,4.0,83,0.00,,,0.20,Wunderground v.1.15,2013-06-29 18:00:00,
2013-06-29 13:05:00,67.1,61.4,29.69,NE,34,1.0,7.0,82,0.00,,,0.20,Wunderground v.1.15,2013-06-29 18:05:00,
2013-06-29 13:10:00,67.2,61.5,29.69,NE,39,2.0,2.0,82,0.00,,,0.20,Wunderground v.1.15,2013-06-29 18:10:00,
2013-06-29 13:16:00,67.6,62.6,29.69,NE,37,3.0,7.0,84,0.00,,,0.20,Wunderground v.1.15,2013-06-29 18:16:00,
2013-06-29 13:22:00,67.8,62.4,29.69,NNE,12,2.0,3.0,83,0.00,,,0.20,Wunderground v.1.15,2013-06-29 18:22:00,
2013-06-29 13:27:00,68.0,62.3,29.69,NNE,21,1.0,8.0,82,0.00,,,0.20,Wunderground v.1.15,2013-06-29 18:27:00,
2013-06-29 13:32:00,68.1,62.4,29.69,NNE,27,1.0,3.0,82,0.00,,,0.20,Wunderground v.1.15,2013-06-29 18:32:00,
2013-06-29 13:37:00,68.4,63.4,29.69,NNE,30,5.0,7.0,84,0.00,,,0.20,Wunderground v.1.15,2013-06-29 18:37:00,
2013-06-29 13:43:00,68.8,62.7,29.70,North,10,3.0,9.0,81,0.00,,,0.20,Wunderground v.1.15,2013-06-29 18:43:00,
2013-06-29 13:48:00,69.4,63.3,29.69,NE,54,1.0,11.0,81,0.00,,,0.20,Wunderground v.1.15,2013-06-29 18:48:00,
2013-06-29 13:53:00,70.1,63.3,29.69,ESE,105,4.0,7.0,79,0.00,,,0.20,Wunderground v.1.15,2013-06-29 18:53:00,
2013-06-29 13:58:00,70.6,63.8,29.69,NNE,24,4.0,10.0,79,0.00,,,0.20,Wunderground v.1.15,2013-06-29 18:58:00,
2013-06-29 14:03:00,70.8,62.5,29.69,East,88,6.0,10.0,75,0.00,,,0.20,Wunderground v.1.15,2013-06-29 19:03:00,
2013-06-29 14:09:00,71.3,61.4,29.69,East,90,6.0,10.0,71,0.00,,,0.20,Wunderground v.1.15,2013-06-29 19:09:00,
2013-06-29 14:14:00,71.6,61.7,29.69,East,80,6.0,11.0,71,0.00,,,0.20,Wunderground v.1.15,2013-06-29 19:14:00,
2013-06-29 14:19:00,71.7,61.4,29.69,ENE,63,4.0,11.0,70,0.00,,,0.20,Wunderground v.1.15,2013-06-29 19:19:00,
2013-06-29 14:24:00,71.9,62.0,29.69,ENE,76,11.0,11.0,71,0.00,,,0.20,Wunderground v.1.15,2013-06-29 19:24:00,
2013-06-29 14:29:00,71.9,61.2,29.69,East,97,3.0,16.0,69,0.00,,,0.20,Wunderground v.1.15,2013-06-29 19:29:00,
2013-06-29 14:34:00,72.2,60.2,29.69,ENE,57,6.0,12.0,66,0.00,,,0.20,Wunderground v.1.15,2013-06-29 19:34:00,
2013-06-29 14:39:00,72.1,61.0,29.69,ESE,109,3.0,12.0,68,0.00,,,0.20,Wunderground v.1.15,2013-06-29 19:39:00,
2013-06-29 14:44:00,72.1,60.5,29.69,ENE,74,6.0,9.0,67,0.00,,,0.20,Wunderground v.1.15,2013-06-29 19:44:00,
2013-06-29 14:50:00,72.1,60.5,29.70,ENE,62,7.0,7.0,67,0.00,,,0.20,Wunderground v.1.15,2013-06-29 19:50:00,
2013-06-29 14:55:00,72.0,59.2,29.70,East,95,2.0,14.0,64,0.00,,,0.20,Wunderground v.1.15,2013-06-29 19:55:00,
2013-06-29 15:01:00,71.9,59.9,29.70,ENE,72,7.0,7.0,66,0.00,,,0.20,Wunderground v.1.15,2013-06-29 20:01:00,
2013-06-29 15:06:00,71.9,58.6,29.70,East,86,3.0,14.0,63,0.00,,,0.20,Wunderground v.1.15,2013-06-29 20:06:00,
2013-06-29 15:11:00,71.5,59.1,29.70,East,90,4.0,11.0,65,0.00,,,0.20,Wunderground v.1.15,2013-06-29 20:11:00,
2013-06-29 15:17:00,71.2,58.8,29.70,ENE,74,2.0,13.0,65,0.00,,,0.20,Wunderground v.1.15,2013-06-29 20:17:00,
2013-06-29 15:22:00,71.5,57.8,29.71,East,89,13.0,13.0,62,0.00,,,0.20,Wunderground v.1.15,2013-06-29 20:22:00,
2013-06-29 15:27:00,71.6,58.8,29.71,East,91,5.0,14.0,64,0.00,,,0.20,Wunderground v.1.15,2013-06-29 20:27:00,
2013-06-29 15:32:00,71.9,59.5,29.71,NNE,32,5.0,11.0,65,0.00,,,0.20,Wunderground v.1.15,2013-06-29 20:32:00,
2013-06-29 15:38:00,71.9,57.7,29.71,ENE,68,6.0,15.0,61,0.00,,,0.20,Wunderground v.1.15,2013-06-29 20:38:00,
2013-06-29 15:43:00,71.8,58.5,29.71,ENE,74,7.0,13.0,63,0.00,,,0.20,Wunderground v.1.15,2013-06-29 20:43:00,
2013-06-29 15:48:00,71.8,58.5,29.71,East,83,6.0,15.0,63,0.00,,,0.20,Wunderground v.1.15,2013-06-29 20:48:00,
2013-06-29 15:54:00,71.8,59.0,29.72,East,88,6.0,13.0,64,0.00,,,0.20,Wunderground v.1.15,2013-06-29 20:54:00,
2013-06-29 16:00:00,72.0,58.7,29.71,ENE,76,3.0,13.0,63,0.00,,,0.20,Wunderground v.1.15,2013-06-29 21:00:00,
2013-06-29 16:05:00,72.2,59.3,29.72,ENE,78,5.0,6.0,64,0.00,,,0.20,Wunderground v.1.15,2013-06-29 21:05:00,
2013-06-29 16:10:00,72.4,59.5,29.71,NE,53,3.0,3.0,64,0.00,,,0.20,Wunderground v.1.15,2013-06-29 21:10:00,
2013-06-29 16:16:00,72.5,58.3,29.71,ENE,69,4.0,11.0,61,0.00,,,0.20,Wunderground v.1.15,2013-06-29 21:16:00,
2013-06-29 16:21:00,72.4,59.5,29.71,ENE,78,9.0,12.0,64,0.00,,,0.20,Wunderground v.1.15,2013-06-29 21:21:00,
2013-06-29 16:27:00,72.2,58.9,29.72,ESE,105,6.0,13.0,63,0.00,,,0.20,Wunderground v.1.15,2013-06-29 21:27:00,
2013-06-29 16:32:00,72.2,58.5,29.72,ENE,64,5.0,13.0,62,0.00,,,0.20,Wunderground v.1.15,2013-06-29 21:32:00,
2013-06-29 16:37:00,72.1,57.9,29.72,ENE,59,11.0,13.0,61,0.00,,,0.20,Wunderground v.1.15,2013-06-29 21:37:00,
2013-06-29 16:42:00,72.1,58.4,29.72,ENE,61,6.0,11.0,62,0.00,,,0.20,Wunderground v.1.15,2013-06-29 21:42:00,
2013-06-29 16:47:00,72.2,58.9,29.72,ESE,107,6.0,11.0,63,0.00,,,0.20,Wunderground v.1.15,2013-06-29 21:47:00,
2013-06-29 16:52:00,72.3,59.4,29.72,East,84,5.0,9.0,64,0.00,,,0.20,Wunderground v.1.15,2013-06-29 21:52:00,
2013-06-29 16:58:00,72.4,58.6,29.72,ENE,68,7.0,11.0,62,0.00,,,0.20,Wunderground v.1.15,2013-06-29 21:58:00,
2013-06-29 17:04:00,72.6,59.7,29.72,ENE,74,10.0,10.0,64,0.00,,,0.20,Wunderground v.1.15,2013-06-29 22:04:00,
2013-06-29 17:09:00,72.7,58.9,29.72,ENE,65,6.0,10.0,62,0.00,,,0.20,Wunderground v.1.15,2013-06-29 22:09:00,
2013-06-29 17:14:00,72.8,58.1,29.72,NNW,337,2.0,8.0,60,0.00,,,0.20,Wunderground v.1.15,2013-06-29 22:14:00,
2013-06-29 17:19:00,72.8,59.0,29.72,NE,38,5.0,8.0,62,0.00,,,0.20,Wunderground v.1.15,2013-06-29 22:19:00,
2013-06-29 17:25:00,72.8,58.6,29.72,North,10,4.0,10.0,61,0.00,,,0.20,Wunderground v.1.15,2013-06-29 22:25:00,
2013-06-29 17:30:00,72.1,57.9,29.72,NNE,19,0.0,10.0,61,0.00,,,0.20,Wunderground v.1.15,2013-06-29 22:30:00,
2013-06-29 17:35:00,71.5,58.2,29.73,ENE,68,4.0,11.0,63,0.00,,,0.20,Wunderground v.1.15,2013-06-29 22:35:00,
2013-06-29 17:40:00,71.0,57.8,29.73,NE,50,11.0,12.0,63,0.00,,,0.20,Wunderground v.1.15,2013-06-29 22:40:00,
2013-06-29 17:45:00,70.5,57.7,29.73,NE,40,6.0,15.0,64,0.00,,,0.20,Wunderground v.1.15,2013-06-29 22:45:00,
2013-06-29 17:51:00,70.0,58.5,29.73,NNW,333,4.0,4.0,67,0.00,,,0.20,Wunderground v.1.15,2013-06-29 22:51:00,
2013-06-29 17:56:00,69.4,58.8,29.74,NNW,331,2.0,12.0,69,0.00,,,0.20,Wunderground v.1.15,2013-06-29 22:56:00,
2013-06-29 18:02:00,68.8,57.8,29.74,East,80,2.0,11.0,68,0.00,,,0.20,Wunderground v.1.15,2013-06-29 23:02:00,
2013-06-29 18:07:00,68.8,58.2,29.74,NNE,26,0.0,11.0,69,0.00,,,0.20,Wunderground v.1.15,2013-06-29 23:07:00,
2013-06-29 18:12:00,68.8,58.6,29.74,NNE,19,0.0,4.0,70,0.00,,,0.20,Wunderground v.1.15,2013-06-29 23:12:00,
2013-06-29 18:17:00,68.8,58.6,29.74,NNE,26,5.0,9.0,70,0.00,,,0.20,Wunderground v.1.15,2013-06-29 23:17:00,
2013-06-29 18:23:00,68.9,57.9,29.75,NE,53,4.0,9.0,68,0.00,,,0.20,Wunderground v.1.15,2013-06-29 23:23:00,
2013-06-29 18:28:00,69.1,58.1,29.75,NNE,24,7.0,9.0,68,0.00,,,0.20,Wunderground v.1.15,2013-06-29 23:28:00,
2013-06-29 18:33:00,69.1,58.5,29.75,NE,35,4.0,7.0,69,0.00,,,0.20,Wunderground v.1.15,2013-06-29 23:33:00,
2013-06-29 18:38:00,69.2,58.6,29.75,NE,52,2.0,8.0,69,0.00,,,0.20,Wunderground v.1.15,2013-06-29 23:38:00,
2013-06-29 18:43:00,69.1,58.5,29.75,NE,41,3.0,7.0,69,0.00,,,0.20,Wunderground v.1.15,2013-06-29 23:43:00,
2013-06-29 18:48:00,69.1,58.5,29.75,ESE,111,6.0,7.0,69,0.00,,,0.20,Wunderground v.1.15,2013-06-29 23:48:00,
2013-06-29 18:53:00,69.1,59.3,29.75,North,5,7.0,7.0,71,0.00,,,0.20,Wunderground v.1.15,2013-06-29 23:53:00,
2013-06-29 18:59:00,69.0,59.2,29.75,NNE,25,2.0,9.0,71,0.00,,,0.20,Wunderground v.1.15,2013-06-29 23:59:00,
2013-06-29 19:04:00,68.8,59.0,29.75,NE,34,1.0,9.0,71,0.00,,,0.20,Wunderground v.1.15,2013-06-30 00:04:00,
2013-06-29 19:09:00,68.7,58.9,29.75,SE,128,3.0,14.0,71,0.00,,,0.20,Wunderground v.1.15,2013-06-30 00:09:00,
2013-06-29 19:15:00,68.6,59.2,29.75,NE,37,2.0,9.0,72,0.00,,,0.20,Wunderground v.1.15,2013-06-30 00:15:00,
2013-06-29 19:20:00,68.5,59.1,29.75,ENE,58,3.0,3.0,72,0.00,,,0.20,Wunderground v.1.15,2013-06-30 00:20:00,
2013-06-29 19:26:00,68.4,59.0,29.75,NNE,13,0.0,5.0,72,0.00,,,0.20,Wunderground v.1.15,2013-06-30 00:26:00,
2013-06-29 19:31:00,68.3,59.3,29.75,NE,40,3.0,4.0,73,0.00,,,0.20,Wunderground v.1.15,2013-06-30 00:31:00,
2013-06-29 19:36:00,68.1,59.5,29.75,NNE,33,0.0,7.0,74,0.00,,,0.20,Wunderground v.1.15,2013-06-30 00:36:00,
2013-06-29 19:42:00,67.9,59.3,29.76,NE,36,1.0,5.0,74,0.00,,,0.20,Wunderground v.1.15,2013-06-30 00:42:00,
2013-06-29 19:47:00,67.8,58.8,29.76,NE,53,2.0,6.0,73,0.00,,,0.20,Wunderground v.1.15,2013-06-30 00:47:00,
2013-06-29 19:52:00,67.6,58.6,29.76,ENE,76,3.0,11.0,73,0.00,,,0.20,Wunderground v.1.15,2013-06-30 00:52:00,
2013-06-29 19:57:00,67.5,58.5,29.77,NE,54,0.0,11.0,73,0.00,,,0.20,Wunderground v.1.15,2013-06-30 00:57:00,
2013-06-29 20:03:00,67.4,58.4,29.77,ENE,75,2.0,6.0,73,0.00,,,0.20,Wunderground v.1.15,2013-06-30 01:03:00,
2013-06-29 20:08:00,67.4,58.8,29.77,ENE,59,3.0,6.0,74,0.00,,,0.20,Wunderground v.1.15,2013-06-30 01:08:00,
2013-06-29 20:13:00,67.3,58.7,29.77,NE,56,3.0,6.0,74,0.00,,,0.20,Wunderground v.1.15,2013-06-30 01:13:00,
2013-06-29 20:18:00,67.3,58.7,29.77,ENE,74,4.0,7.0,74,0.00,,,0.20,Wunderground v.1.15,2013-06-30 01:18:00,
2013-06-29 20:23:00,67.2,58.6,29.77,ENE,59,0.0,7.0,74,0.00,,,0.20,Wunderground v.1.15,2013-06-30 01:23:00,
2013-06-29 20:28:00,67.1,58.2,29.77,ENE,74,4.0,10.0,73,0.00,,,0.20,Wunderground v.1.15,2013-06-30 01:28:00,
2013-06-29 20:34:00,67.0,58.4,29.77,ENE,64,0.0,3.0,74,0.00,,,0.20,Wunderground v.1.15,2013-06-30 01:34:00,
2013-06-29 20:39:00,66.9,58.3,29.77,NE,55,1.0,7.0,74,0.00,,,0.20,Wunderground v.1.15,2013-06-30 01:39:00,
2013-06-29 20:44:00,66.8,58.2,29.78,East,87,1.0,6.0,74,0.00,,,0.20,Wunderground v.1.15,2013-06-30 01:44:00,
2013-06-29 20:49:00,66.7,58.1,29.78,ENE,66,2.0,7.0,74,0.00,,,0.20,Wunderground v.1.15,2013-06-30 01:49:00,
2013-06-29 20:54:00,66.6,58.1,29.78,East,80,4.0,7.0,74,0.00,,,0.20,Wunderground v.1.15,2013-06-30 01:54:00,
2013-06-29 21:00:00,66.4,57.5,29.78,ENE,59,1.0,8.0,73,0.00,,,0.20,Wunderground v.1.15,2013-06-30 02:00:00,
2013-06-29 21:05:00,66.2,57.7,29.79,ENE,63,5.0,6.0,74,0.00,,,0.20,Wunderground v.1.15,2013-06-30 02:05:00,
2013-06-29 21:11:00,66.1,57.6,29.79,East,85,5.0,7.0,74,0.00,,,0.20,Wunderground v.1.15,2013-06-30 02:11:00,
2013-06-29 21:16:00,66.1,57.6,29.79,ENE,59,5.0,7.0,74,0.00,,,0.20,Wunderground v.1.15,2013-06-30 02:16:00,
2013-06-29 21:21:00,66.0,57.5,29.79,ENE,72,6.0,9.0,74,0.00,,,0.20,Wunderground v.1.15,2013-06-30 02:21:00,
2013-06-29 21:26:00,66.0,57.5,29.79,NNE,21,4.0,9.0,74,0.00,,,0.20,Wunderground v.1.15,2013-06-30 02:26:00,
2013-06-29 21:32:00,66.0,57.8,29.79,NE,54,3.0,6.0,75,0.00,,,0.20,Wunderground v.1.15,2013-06-30 02:32:00,
2013-06-29 21:37:00,65.9,57.4,29.79,ENE,71,3.0,11.0,74,0.00,,,0.20,Wunderground v.1.15,2013-06-30 02:37:00,
2013-06-29 21:42:00,65.9,57.7,29.79,North,5,4.0,11.0,75,0.00,,,0.20,Wunderground v.1.15,2013-06-30 02:42:00,
2013-06-29 21:47:00,65.9,57.7,29.80,ENE,61,3.0,11.0,75,0.00,,,0.20,Wunderground v.1.15,2013-06-30 02:47:00,
2013-06-29 21:52:00,65.9,57.4,29.80,ENE,65,3.0,6.0,74,0.00,,,0.20,Wunderground v.1.15,2013-06-30 02:52:00,
2013-06-29 21:57:00,65.9,57.7,29.80,NNE,27,3.0,6.0,75,0.00,,,0.20,Wunderground v.1.15,2013-06-30 02:57:00,
2013-06-29 22:03:00,65.8,57.3,29.81,North,10,7.0,7.0,74,0.00,,,0.20,Wunderground v.1.15,2013-06-30 03:03:00,
2013-06-29 22:08:00,65.8,57.3,29.81,NNE,15,9.0,11.0,74,0.00,,,0.20,Wunderground v.1.15,2013-06-30 03:08:00,
2013-06-29 22:13:00,65.7,57.2,29.81,East,90,4.0,9.0,74,0.00,,,0.20,Wunderground v.1.15,2013-06-30 03:13:00,
2013-06-29 22:19:00,65.6,57.5,29.81,NNE,31,4.0,9.0,75,0.00,,,0.20,Wunderground v.1.15,2013-06-30 03:19:00,
2013-06-29 22:24:00,65.6,57.5,29.81,NE,46,5.0,5.0,75,0.00,,,0.20,Wunderground v.1.15,2013-06-30 03:24:00,
2013-06-29 22:29:00,65.4,57.3,29.81,NE,42,1.0,5.0,75,0.00,,,0.20,Wunderground v.1.15,2013-06-30 03:29:00,
2013-06-29 22:34:00,65.4,57.3,29.81,ENE,62,1.0,10.0,75,0.00,,,0.20,Wunderground v.1.15,2013-06-30 03:34:00,
2013-06-29 22:39:00,65.4,57.6,29.81,ENE,62,0.0,10.0,76,0.00,,,0.20,Wunderground v.1.15,2013-06-30 03:39:00,
2013-06-29 22:44:00,65.4,57.6,29.81,ENE,68,3.0,5.0,76,0.00,,,0.20,Wunderground v.1.15,2013-06-30 03:44:00,
2013-06-29 22:49:00,65.4,57.6,29.81,ENE,71,1.0,6.0,76,0.00,,,0.20,Wunderground v.1.15,2013-06-30 03:49:00,
2013-06-29 22:55:00,65.3,57.5,29.81,NE,42,2.0,5.0,76,0.00,,,0.20,Wunderground v.1.15,2013-06-30 03:55:00,
2013-06-29 23:00:00,65.4,57.6,29.81,NNE,32,1.0,2.0,76,0.00,,,0.20,Wunderground v.1.15,2013-06-30 04:00:00,
2013-06-29 23:01:00,65.4,57.6,29.81,NE,56,4.0,4.0,76,0.00,,,0.20,Wunderground v.1.15,2013-06-30 04:01:00,
2013-06-29 23:02:00,65.4,57.6,29.81,NNW,335,4.0,5.0,76,0.00,,,0.20,Wunderground v.1.15,2013-06-30 04:02:00,
2013-06-29 23:07:00,65.4,57.6,29.81,East,90,3.0,5.0,76,0.00,,,0.20,Wunderground v.1.15,2013-06-30 04:07:00,
2013-06-29 23:12:00,65.4,57.6,29.81,ENE,78,3.0,5.0,76,0.00,,,0.20,Wunderground v.1.15,2013-06-30 04:12:00,
2013-06-29 23:17:00,65.4,57.6,29.81,North,5,3.0,5.0,76,0.00,,,0.20,Wunderground v.1.15,2013-06-30 04:17:00,
2013-06-29 23:22:00,65.4,57.6,29.81,East,94,2.0,5.0,76,0.00,,,0.20,Wunderground v.1.15,2013-06-30 04:22:00,
2013-06-29 23:27:00,65.4,57.6,29.82,North,5,2.0,5.0,76,0.00,,,0.20,Wunderground v.1.15,2013-06-30 04:27:00,
2013-06-29 23:33:00,65.3,57.5,29.82,ENE,75,4.0,4.0,76,0.00,,,0.20,Wunderground v.1.15,2013-06-30 04:33:00,
2013-06-29 23:39:00,65.2,57.4,29.82,NNE,21,3.0,4.0,76,0.00,,,0.20,Wunderground v.1.15,2013-06-30 04:39:00,
2013-06-29 23:44:00,65.2,57.4,29.82,ESE,115,0.0,6.0,76,0.00,,,0.20,Wunderground v.1.15,2013-06-30 04:44:00,
2013-06-29 23:49:00,65.2,57.4,29.82,NE,49,0.0,6.0,76,0.00,,,0.20,Wunderground v.1.15,2013-06-30 04:49:00,
2013-06-29 23:55:00,65.2,57.8,29.83,NE,54,2.0,6.0,77,0.00,,,0.20,Wunderground v.1.15,2013-06-30 04:55:00,